Briefing drone pour Aurillac (LFLW)

Rechercher une autre localisation

Conditions de vol :


Nous sommes le : Vendredi 09 décembre 2022
Il est 23:08 UTC (00:08 LT)

Lever de soleil : 06:50 UTC (07:50 LT)
Coucher de soleil : 16:35 UTC (17:35 LT)

Météo

L'essentiel des conditions de vol

VIGILANCE MÉTÉO FRANCE - Cantal (15)
Pas de vigilances particulieres
CARTE TEMSI
CARTES DES FRONTS
METAR de LFLW
LFLW 082300Z AUTO 11003KT 9999 BKN016 BKN045 OVC052 05/03 Q1000

Date d'émission: 08/12/2022
Heure d'émission: 23:00 UTC
Vent: 110° pour 3 KT (6 km/h)
Visibilité horizontale: > 10 km
Plafond :
- Nuages morcelés à 1600ft (488m)
- Nuages morcelés à 4500ft (1372m)
- Couvert à 5200ft (1585m)
Température: 5 °C
Point de rosée: 3 °C
Humidité: 87%
Pression (QNH): 1000 hPa
Prévision 24h pour Aurillac
Vent : 11° pour 0 KT (1 km/h)
Temperature Maxi: 4 °C
Temperature Min: 4 °C
Humidité : 99%
Condition : Couvert



Warning: count(): Parameter must be an array or an object that implements Countable in /homepages/6/d509196549/htdocs/droneoxygene/briefing.php on line 743
WEBCAM POUR AURILLAC

Réglementation

Voler en sécurité

CARTES AERONAUTIQUE 1/500.000
CARTE AZBA (Reseau basse altitude)
CARTES VAC (LFLW)
SUP AIP




Chargement des AIP...
NOTAM (AURILLAC + Terrain à proximité / FIR )




Chargement des NOTAMS...
CONTACT PREFECTURE 15


Avertissement : Les données mises à disposition sont indicatives. Oxygène Drone ne pourra être tenu responsable de dégâts causés aux biens et aux personnes.